Bypro, Kentucky
Current Conditions -  °F | °C
As of 5:55 PM on Thursday 23 Oct 2014 (Local Time) from KPBX Reporting Station
Clear Clear  
Wind Chill: 53°   Ceiling: Unl
Heat Index: 53°   Visibility: 10mi
Dew Point: 41°   Wind: 0mph
Humidity: 65%   Direction: NA
Pressure: 30.14"   Gusts: NA
Location:  37.36°N, 82.69°W
Report Text: KPBX 232155Z AUTO 00000KT 10SM CLR 12/05 A3014 RMK AO2 T01150051
Loading
Personal Weather Stations






























Interactive Weather Map
Tropical Storm Tracking
New forecast layout! Learn more

10-Day Weather Forecast

Advertisements
Track Severe Weather on mobile